Time;durP1;ratioP1;P1;durP2;ratioP2;P2;SDS_P1;SDS_P2;PMS_P1;PMS_P2;Temp;Humidity;BMP_temperature;BMP_pressure;BME280_temperature;BME280_humidity;BME280_pressure;Samples;Min_cycle;Max_cycle;Signal;HPM_P1;HPM_P2
2022/04/16 00:02:09;;;;;;;3.87;3.57;;;;;;;;;;5019604;28;20332;-61
2022/04/16 00:04:57;;;;;;;4.73;3.47;;;;;;;;;;5017208;28;20300;-60
2022/04/16 00:08:06;;;;;;;10.37;3.37;;;;;;;;;;5017794;28;20259;-59
2022/04/16 00:10:53;;;;;;;5.60;3.10;;;;;;;;;;5021246;28;20303;-60
2022/04/16 00:13:40;;;;;;;2.93;2.73;;;;;;;;;;5024368;28;20302;-60
2022/04/16 00:16:27;;;;;;;4.47;2.90;;;;;;;;;;5017996;28;20667;-60
2022/04/16 00:19:14;;;;;;;8.53;3.40;;;;;;;;;;5022203;28;20336;-60
2022/04/16 00:22:01;;;;;;;3.17;2.87;;;;;;;;;;5017470;28;20296;-60
2022/04/16 00:24:50;;;;;;;2.70;2.60;;;;;;;;;;5022136;28;20207;-60
2022/04/16 00:27:38;;;;;;;2.70;2.50;;;;;;;;;;5019649;28;20222;-60
2022/04/16 00:30:26;;;;;;;2.30;2.20;;;;;;;;;;5018976;28;20217;-60
2022/04/16 00:33:13;;;;;;;2.93;2.27;;;;;;;;;;5015053;28;20242;-59
2022/04/16 00:36:00;;;;;;;4.00;2.23;;;;;;;;;;5021750;28;20211;-59
2022/04/16 00:38:47;;;;;;;15.53;3.00;;;;;;;;;;5019093;28;20768;-61
2022/04/16 00:41:36;;;;;;;6.73;2.20;;;;;;;;;;5020354;28;20206;-61
2022/04/16 00:44:23;;;;;;;8.90;2.20;;;;;;;;;;5024780;28;20298;-61
2022/04/16 00:47:12;;;;;;;13.83;2.30;;;;;;;;;;5021721;28;20308;-61
2022/04/16 00:49:59;;;;;;;11.10;2.20;;;;;;;;;;5019918;28;20730;-61
2022/04/16 00:52:46;;;;;;;11.63;2.00;;;;;;;;;;5021714;28;20743;-62
2022/04/16 00:55:36;;;;;;;7.03;1.70;;;;;;;;;;5020037;28;20265;-60
2022/04/16 00:58:25;;;;;;;2.27;1.53;;;;;;;;;;5020532;28;20226;-60
2022/04/16 01:01:12;;;;;;;3.70;1.90;;;;;;;;;;5023128;28;20323;-60
2022/04/16 01:03:59;;;;;;;2.30;1.80;;;;;;;;;;5020019;28;20265;-60
2022/04/16 01:06:48;;;;;;;2.00;1.90;;;;;;;;;;5019568;28;20360;-60
2022/04/16 01:09:35;;;;;;;2.63;1.50;;;;;;;;;;5019953;28;20329;-60
2022/04/16 01:12:22;;;;;;;2.00;1.40;;;;;;;;;;5026397;28;20265;-60
2022/04/16 01:15:13;;;;;;;1.50;1.10;;;;;;;;;;5023897;28;20267;-60
2022/04/16 01:18:02;;;;;;;4.07;1.67;;;;;;;;;;5022525;28;20567;-60
2022/04/16 01:20:49;;;;;;;1.57;1.40;;;;;;;;;;5018747;28;20207;-60
2022/04/16 01:23:37;;;;;;;1.50;1.40;;;;;;;;;;5019652;28;20299;-60
2022/04/16 01:26:24;;;;;;;1.80;1.20;;;;;;;;;;5020501;28;20261;-60
2022/04/16 01:29:11;;;;;;;1.53;1.43;;;;;;;;;;5018422;28;20642;-59
2022/04/16 01:31:59;;;;;;;1.50;1.40;;;;;;;;;;5023176;28;20294;-60
2022/04/16 01:34:46;;;;;;;3.13;1.07;;;;;;;;;;5021361;28;20247;-60
2022/04/16 01:37:35;;;;;;;4.00;1.20;;;;;;;;;;5022258;28;20237;-60
2022/04/16 01:40:25;;;;;;;1.00;0.90;;;;;;;;;;5022162;28;20222;-60
2022/04/16 01:43:12;;;;;;;0.90;0.90;;;;;;;;;;5021193;28;20221;-60
2022/04/16 01:45:59;;;;;;;1.07;1.07;;;;;;;;;;5017714;28;20306;-60
2022/04/16 01:48:47;;;;;;;1.20;1.10;;;;;;;;;;5022290;28;20211;-60
2022/04/16 01:51:34;;;;;;;1.00;0.90;;;;;;;;;;5017576;28;20410;-60
2022/04/16 01:54:21;;;;;;;1.00;1.00;;;;;;;;;;5019397;28;20235;-60
2022/04/16 01:57:09;;;;;;;1.10;1.10;;;;;;;;;;5020289;28;20284;-60
2022/04/16 01:59:57;;;;;;;1.07;1.07;;;;;;;;;;5017920;28;20208;-60
2022/04/16 02:02:44;;;;;;;1.00;1.00;;;;;;;;;;5019807;28;20212;-60
2022/04/16 02:05:31;;;;;;;0.83;0.83;;;;;;;;;;5021303;28;20211;-60
2022/04/16 02:08:18;;;;;;;1.00;1.00;;;;;;;;;;5016874;28;20712;-60
2022/04/16 02:11:05;;;;;;;0.77;0.77;;;;;;;;;;5019995;28;20297;-60
2022/04/16 02:13:53;;;;;;;3.27;1.20;;;;;;;;;;5021115;28;20238;-61
2022/04/16 02:16:40;;;;;;;1.00;1.00;;;;;;;;;;5019294;28;20335;-60
2022/04/16 02:19:27;;;;;;;1.63;1.10;;;;;;;;;;5019936;28;20202;-61
2022/04/16 02:22:14;;;;;;;0.97;0.80;;;;;;;;;;5024695;28;20287;-61
2022/04/16 02:25:05;;;;;;;1.03;0.87;;;;;;;;;;5029188;28;20290;-61
2022/04/16 02:27:52;;;;;;;0.80;0.80;;;;;;;;;;5023915;28;20268;-60
2022/04/16 02:30:41;;;;;;;1.10;1.00;;;;;;;;;;5026451;28;20291;-61
2022/04/16 02:33:28;;;;;;;1.20;1.20;;;;;;;;;;5021603;28;20216;-61
2022/04/16 02:36:15;;;;;;;2.43;0.90;;;;;;;;;;5024024;28;20284;-61
2022/04/16 02:39:02;;;;;;;0.80;0.80;;;;;;;;;;5024339;28;20294;-61
2022/04/16 02:41:49;;;;;;;0.80;0.80;;;;;;;;;;5025229;28;20327;-61
2022/04/16 02:47:41;;;;;;;0.80;0.80;;;;;;;;;;5023792;28;20595;-61
2022/04/16 02:50:29;;;;;;;0.80;0.80;;;;;;;;;;5023081;28;20210;-61
2022/04/16 02:53:16;;;;;;;1.00;1.00;;;;;;;;;;5026483;28;20306;-61
2022/04/16 02:56:03;;;;;;;1.00;1.00;;;;;;;;;;5024099;28;20773;-61
2022/04/16 02:58:50;;;;;;;0.80;0.80;;;;;;;;;;5023140;28;20291;-61
2022/04/16 03:01:37;;;;;;;0.77;0.77;;;;;;;;;;5024630;28;20693;-61
2022/04/16 03:04:26;;;;;;;0.73;0.73;;;;;;;;;;5026760;28;20746;-61
2022/04/16 03:07:13;;;;;;;2.97;0.80;;;;;;;;;;5020624;28;20224;-62
2022/04/16 03:10:02;;;;;;;2.90;0.87;;;;;;;;;;5025238;28;20339;-62
2022/04/16 03:12:51;;;;;;;7.97;0.90;;;;;;;;;;5025856;28;20205;-65
2022/04/16 03:18:42;;;;;;;11.13;1.13;;;;;;;;;;5020632;28;20213;-61
2022/04/16 03:21:30;;;;;;;5.33;1.20;;;;;;;;;;5017477;28;20719;-61
2022/04/16 03:24:18;;;;;;;3.27;1.13;;;;;;;;;;5022807;28;20244;-61
2022/04/16 03:27:06;;;;;;;3.90;0.90;;;;;;;;;;5023486;28;20321;-61
2022/04/16 03:29:53;;;;;;;2.63;0.90;;;;;;;;;;5024849;28;20265;-61
2022/04/16 03:32:40;;;;;;;0.97;0.70;;;;;;;;;;5024672;28;20296;-61
2022/04/16 03:35:27;;;;;;;2.00;0.90;;;;;;;;;;5023753;28;20204;-63
2022/04/16 03:38:16;;;;;;;4.77;1.10;;;;;;;;;;5022272;28;20208;-61
2022/04/16 03:41:02;;;;;;;0.73;0.73;;;;;;;;;;5022580;28;20287;-61
2022/04/16 03:43:49;;;;;;;0.80;0.80;;;;;;;;;;5021227;28;20619;-61
2022/04/16 03:46:36;;;;;;;0.80;0.80;;;;;;;;;;5025232;28;20297;-62
2022/04/16 03:49:23;;;;;;;2.47;0.60;;;;;;;;;;5025223;28;20301;-62
2022/04/16 03:52:10;;;;;;;0.63;0.63;;;;;;;;;;5019545;28;20225;-62
2022/04/16 04:01:08;;;;;;;0.73;0.60;;;;;;;;;;5023496;28;20721;-62
2022/04/16 04:03:55;;;;;;;0.73;0.73;;;;;;;;;;5020274;28;20334;-61
2022/04/16 04:06:42;;;;;;;0.67;0.67;;;;;;;;;;5019752;28;20212;-61
2022/04/16 04:09:29;;;;;;;0.60;0.60;;;;;;;;;;5020958;28;20212;-62
2022/04/16 04:12:17;;;;;;;0.90;0.90;;;;;;;;;;5019189;28;20203;-62
2022/04/16 04:15:05;;;;;;;0.80;0.80;;;;;;;;;;5026097;28;20750;-62
2022/04/16 04:17:52;;;;;;;0.70;0.70;;;;;;;;;;5024157;28;20192;-62
2022/04/16 04:20:39;;;;;;;0.80;0.80;;;;;;;;;;5024011;28;20208;-62
2022/04/16 04:23:26;;;;;;;1.43;0.67;;;;;;;;;;5020413;28;20299;-63
2022/04/16 04:26:13;;;;;;;0.70;0.70;;;;;;;;;;5019783;28;20284;-62
2022/04/16 04:29:01;;;;;;;0.73;0.73;;;;;;;;;;5020258;28;20303;-62
2022/04/16 04:31:48;;;;;;;1.47;0.90;;;;;;;;;;5020927;28;20292;-62
2022/04/16 04:34:35;;;;;;;0.70;0.70;;;;;;;;;;5020837;28;20209;-62
2022/04/16 04:37:22;;;;;;;0.70;0.70;;;;;;;;;;5021338;28;20212;-62
2022/04/16 04:40:10;;;;;;;0.77;0.77;;;;;;;;;;5022700;28;20212;-62
2022/04/16 04:42:57;;;;;;;1.53;0.90;;;;;;;;;;5019943;28;20701;-62
2022/04/16 04:45:46;;;;;;;2.47;1.10;;;;;;;;;;5021153;28;20253;-61
2022/04/16 04:48:33;;;;;;;1.00;0.90;;;;;;;;;;5025276;28;20299;-62
2022/04/16 04:51:20;;;;;;;4.00;1.03;;;;;;;;;;5017720;28;20213;-63
2022/04/16 04:54:08;;;;;;;6.53;1.10;;;;;;;;;;5022923;28;20331;-62
2022/04/16 04:56:55;;;;;;;2.13;0.80;;;;;;;;;;5025136;28;20302;-61
2022/04/16 04:59:43;;;;;;;2.83;1.07;;;;;;;;;;5018184;28;21064;-61
2022/04/16 05:02:39;;;;;;;1.70;0.87;;;;;;;;;;5022057;28;20217;-62
2022/04/16 05:05:26;;;;;;;1.23;0.90;;;;;;;;;;5022656;28;20240;-62
2022/04/16 05:08:13;;;;;;;3.63;1.07;;;;;;;;;;5019851;28;20228;-62
2022/04/16 05:11:00;;;;;;;0.80;0.80;;;;;;;;;;5020338;28;20291;-63
2022/04/16 05:13:47;;;;;;;1.57;0.93;;;;;;;;;;5019089;28;20206;-61
2022/04/16 05:16:34;;;;;;;2.10;1.10;;;;;;;;;;5020286;28;20260;-61
2022/04/16 05:19:22;;;;;;;1.10;1.07;;;;;;;;;;5019493;28;20248;-62
2022/04/16 05:22:09;;;;;;;2.33;1.17;;;;;;;;;;5021076;28;20302;-64
2022/04/16 05:24:56;;;;;;;0.90;0.90;;;;;;;;;;5017804;28;20899;-62
2022/04/16 05:27:44;;;;;;;0.93;0.93;;;;;;;;;;5021441;28;20291;-61
2022/04/16 05:30:37;;;;;;;2.23;1.10;;;;;;;;;;5017461;28;20204;-61
2022/04/16 05:36:31;;;;;;;0.70;0.70;;;;;;;;;;5015993;28;20299;-62
2022/04/16 05:39:19;;;;;;;2.30;0.90;;;;;;;;;;5021069;28;20293;-62
2022/04/16 05:42:06;;;;;;;1.20;1.10;;;;;;;;;;5017826;28;20309;-62
2022/04/16 05:44:53;;;;;;;0.80;0.80;;;;;;;;;;5018293;28;20215;-62
2022/04/16 05:47:41;;;;;;;0.90;0.90;;;;;;;;;;5019444;28;20785;-62
2022/04/16 05:50:28;;;;;;;1.00;1.00;;;;;;;;;;5023696;28;20399;-61
2022/04/16 05:53:17;;;;;;;0.90;0.70;;;;;;;;;;5022130;28;21140;-61
2022/04/16 05:56:04;;;;;;;1.20;1.20;;;;;;;;;;5026273;28;20720;-61
2022/04/16 05:58:51;;;;;;;1.30;1.30;;;;;;;;;;5026709;28;20297;-62
2022/04/16 06:01:38;;;;;;;3.13;1.37;;;;;;;;;;5027778;28;20587;-61
2022/04/16 06:04:25;;;;;;;4.00;1.23;;;;;;;;;;5025193;28;20658;-62
2022/04/16 06:07:12;;;;;;;6.57;1.30;;;;;;;;;;5022414;28;20238;-61
2022/04/16 06:10:00;;;;;;;2.33;1.40;;;;;;;;;;5022167;28;20302;-61
2022/04/16 06:12:47;;;;;;;2.05;1.30;;;;;;;;;;5026607;28;20235;-61
2022/04/16 06:15:34;;;;;;;2.55;1.33;;;;;;;;;;5026530;28;20311;-60
2022/04/16 06:18:21;;;;;;;12.75;1.45;;;;;;;;;;5021129;28;20290;-60
2022/04/16 06:21:08;;;;;;;0.98;0.98;;;;;;;;;;5020293;28;20260;-60
2022/04/16 06:23:55;;;;;;;2.60;1.10;;;;;;;;;;5022474;28;20302;-60
2022/04/16 06:26:45;;;;;;;1.25;1.10;;;;;;;;;;5022078;28;20211;-60
2022/04/16 06:29:32;;;;;;;3.97;1.15;;;;;;;;;;5024348;28;20230;-61
2022/04/16 06:32:18;;;;;;;1.05;1.00;;;;;;;;;;5021060;28;20239;-61
2022/04/16 06:35:06;;;;;;;1.33;1.23;;;;;;;;;;5024416;28;20420;-63
2022/04/16 06:37:53;;;;;;;4.63;1.23;;;;;;;;;;5025313;28;20665;-60
2022/04/16 06:40:40;;;;;;;7.18;1.30;;;;;;;;;;5026462;28;20359;-61
2022/04/16 06:43:28;;;;;;;1.98;0.88;;;;;;;;;;5020040;28;20294;-61
2022/04/16 06:46:15;;;;;;;2.22;0.93;;;;;;;;;;5024329;28;20300;-61
2022/04/16 06:49:02;;;;;;;3.17;0.93;;;;;;;;;;5022197;28;20704;-60
2022/04/16 06:51:49;;;;;;;4.82;1.45;;;;;;;;;;5016891;28;20279;-59
2022/04/16 06:54:37;;;;;;;1.35;1.20;;;;;;;;;;5024032;28;20232;-60
2022/04/16 06:57:23;;;;;;;1.20;1.10;;;;;;;;;;5025619;28;20200;-60
2022/04/16 07:00:13;;;;;;;3.25;0.90;;;;;;;;;;5024949;28;20267;-60
2022/04/16 07:03:00;;;;;;;5.60;0.90;;;;;;;;;;5023868;28;20209;-61
2022/04/16 07:05:47;;;;;;;2.08;1.00;;;;;;;;;;5022390;28;20519;-60
2022/04/16 07:08:34;;;;;;;0.82;0.82;;;;;;;;;;5020269;28;20804;-60
2022/04/16 07:11:21;;;;;;;0.88;0.88;;;;;;;;;;5020909;28;20338;-60
2022/04/16 07:14:08;;;;;;;2.00;1.00;;;;;;;;;;5026488;28;20213;-60
2022/04/16 07:16:56;;;;;;;1.00;1.00;;;;;;;;;;5022379;28;20228;-59
2022/04/16 07:19:43;;;;;;;1.30;1.20;;;;;;;;;;5023959;28;20196;-59
2022/04/16 07:22:30;;;;;;;1.20;1.10;;;;;;;;;;5016423;28;20247;-59
2022/04/16 07:25:17;;;;;;;0.77;0.77;;;;;;;;;;5022585;28;20295;-59
2022/04/16 07:28:04;;;;;;;2.80;1.00;;;;;;;;;;5018892;28;20292;-60
2022/04/16 07:30:52;;;;;;;1.00;0.98;;;;;;;;;;5021565;28;20680;-60
2022/04/16 07:33:40;;;;;;;3.13;0.95;;;;;;;;;;5020346;28;20267;-61
2022/04/16 07:36:27;;;;;;;3.63;1.13;;;;;;;;;;5022579;28;20706;-61
2022/04/16 07:39:15;;;;;;;1.00;1.00;;;;;;;;;;5020462;28;20776;-60
2022/04/16 07:42:01;;;;;;;1.20;0.70;;;;;;;;;;5020974;28;20259;-62
2022/04/16 07:44:48;;;;;;;1.20;0.88;;;;;;;;;;5023211;28;20698;-61
2022/04/16 07:47:35;;;;;;;1.33;0.85;;;;;;;;;;5024398;28;20576;-62
2022/04/16 07:50:24;;;;;;;1.10;1.00;;;;;;;;;;5022119;28;20228;-63
2022/04/16 07:53:11;;;;;;;3.08;0.80;;;;;;;;;;5019950;28;20311;-62
2022/04/16 07:55:58;;;;;;;18.70;2.47;;;;;;;;;;5019767;28;20211;-63
2022/04/16 07:58:45;;;;;;;11.52;1.67;;;;;;;;;;5019461;28;20303;-63
2022/04/16 08:01:33;;;;;;;2.92;1.33;;;;;;;;;;5022163;28;20664;-63
2022/04/16 08:04:20;;;;;;;7.32;2.05;;;;;;;;;;5019937;28;20688;-62
2022/04/16 08:07:08;;;;;;;4.80;1.30;;;;;;;;;;5021512;28;20296;-63
2022/04/16 08:09:55;;;;;;;6.72;1.40;;;;;;;;;;5024764;28;20239;-61
2022/04/16 08:12:42;;;;;;;10.32;1.50;;;;;;;;;;5016303;28;20316;-61
2022/04/16 08:15:29;;;;;;;5.55;1.20;;;;;;;;;;5022890;28;20309;-61
2022/04/16 08:18:16;;;;;;;5.05;1.00;;;;;;;;;;5018177;28;20216;-61
2022/04/16 08:21:03;;;;;;;2.55;1.27;;;;;;;;;;5019456;28;20287;-60
2022/04/16 08:24:04;;;;;;;3.35;1.40;;;;;;;;;;5018846;28;20205;-60
2022/04/16 08:26:51;;;;;;;4.95;1.40;;;;;;;;;;5019966;28;20655;-60
2022/04/16 08:29:38;;;;;;;2.65;1.08;;;;;;;;;;5020747;28;20252;-60
2022/04/16 08:32:25;;;;;;;2.15;1.20;;;;;;;;;;5022445;28;20330;-60
2022/04/16 08:35:14;;;;;;;2.65;1.70;;;;;;;;;;5023430;28;20681;-59
2022/04/16 08:38:00;;;;;;;3.22;1.60;;;;;;;;;;5022256;28;20722;-60
2022/04/16 08:40:50;;;;;;;2.05;1.88;;;;;;;;;;5023775;28;20335;-60
2022/04/16 08:43:41;;;;;;;3.95;1.63;;;;;;;;;;5020381;28;20216;-61
2022/04/16 08:46:32;;;;;;;2.35;1.85;;;;;;;;;;5022057;28;20736;-61
2022/04/16 08:49:20;;;;;;;1.42;1.33;;;;;;;;;;5021332;28;20228;-61
2022/04/16 08:52:09;;;;;;;1.73;1.40;;;;;;;;;;5020213;28;20720;-61
2022/04/16 08:54:56;;;;;;;1.60;1.50;;;;;;;;;;5023047;28;20334;-61
2022/04/16 08:57:45;;;;;;;1.52;1.40;;;;;;;;;;5019893;28;20485;-60
2022/04/16 09:00:32;;;;;;;2.90;1.45;;;;;;;;;;5020037;28;20208;-61
2022/04/16 09:03:19;;;;;;;3.20;1.77;;;;;;;;;;5017414;28;20286;-61
2022/04/16 09:06:07;;;;;;;1.15;1.15;;;;;;;;;;5024499;28;20337;-61
2022/04/16 09:08:54;;;;;;;1.52;1.42;;;;;;;;;;5015090;28;20213;-61
2022/04/16 09:11:48;;;;;;;2.13;1.40;;;;;;;;;;5021319;28;20291;-61
2022/04/16 09:14:37;;;;;;;1.40;1.30;;;;;;;;;;5028057;28;20213;-60
2022/04/16 09:17:24;;;;;;;1.42;1.30;;;;;;;;;;5020765;28;20661;-61
2022/04/16 09:20:12;;;;;;;2.08;1.05;;;;;;;;;;5021088;28;20275;-61
2022/04/16 09:23:00;;;;;;;1.45;1.30;;;;;;;;;;5021358;28;20675;-63
2022/04/16 09:25:47;;;;;;;1.20;1.20;;;;;;;;;;5018313;28;20209;-61
2022/04/16 09:28:43;;;;;;;1.10;1.10;;;;;;;;;;5016385;28;20315;-62
2022/04/16 09:31:34;;;;;;;1.20;1.10;;;;;;;;;;5021288;28;20239;-61
2022/04/16 09:34:23;;;;;;;0.77;0.77;;;;;;;;;;5023017;28;20208;-62
2022/04/16 09:37:14;;;;;;;1.63;1.42;;;;;;;;;;5021429;28;20201;-61
2022/04/16 09:40:10;;;;;;;1.40;1.30;;;;;;;;;;5019390;28;20282;-62
2022/04/16 09:42:58;;;;;;;2.80;1.80;;;;;;;;;;5023098;28;20289;-62
2022/04/16 09:45:45;;;;;;;4.88;1.80;;;;;;;;;;5028205;28;20203;-61
2022/04/16 09:48:36;;;;;;;1.88;1.77;;;;;;;;;;5015389;28;20298;-62
2022/04/16 09:51:25;;;;;;;2.70;2.60;;;;;;;;;;5017531;28;20733;-62
2022/04/16 09:54:12;;;;;;;4.55;4.15;;;;;;;;;;5020353;28;20317;-62
2022/04/16 09:57:02;;;;;;;5.95;4.60;;;;;;;;;;5023324;28;20296;-61
2022/04/16 09:59:53;;;;;;;8.02;4.22;;;;;;;;;;5019637;28;20287;-61
2022/04/16 10:02:41;;;;;;;7.07;3.83;;;;;;;;;;5025680;28;20265;-61
2022/04/16 10:05:29;;;;;;;4.68;3.58;;;;;;;;;;5019324;28;20277;-61
2022/04/16 10:08:17;;;;;;;5.75;3.53;;;;;;;;;;5022680;28;20267;-61
2022/04/16 10:11:04;;;;;;;3.72;3.42;;;;;;;;;;5015787;28;20275;-60
2022/04/16 10:13:57;;;;;;;5.00;3.55;;;;;;;;;;5020399;28;20218;-60
2022/04/16 10:16:55;;;;;;;3.88;2.90;;;;;;;;;;5016440;28;20660;-61
2022/04/16 10:19:47;;;;;;;5.38;3.10;;;;;;;;;;5018926;28;20200;-61
2022/04/16 10:22:36;;;;;;;3.17;2.92;;;;;;;;;;5020775;28;20216;-61
2022/04/16 10:25:32;;;;;;;4.30;2.78;;;;;;;;;;5025345;28;20680;-61
2022/04/16 10:28:20;;;;;;;2.85;2.50;;;;;;;;;;5021806;28;20216;-61
2022/04/16 10:31:19;;;;;;;4.65;2.50;;;;;;;;;;5019858;28;20690;-61
2022/04/16 10:34:08;;;;;;;3.03;2.55;;;;;;;;;;5018498;28;20202;-61
2022/04/16 10:36:55;;;;;;;2.67;2.15;;;;;;;;;;5022555;28;20693;-61
2022/04/16 10:39:44;;;;;;;2.25;2.13;;;;;;;;;;5018972;28;20668;-60
2022/04/16 10:42:32;;;;;;;2.72;2.17;;;;;;;;;;5025274;28;20779;-60
2022/04/16 10:45:19;;;;;;;2.78;2.30;;;;;;;;;;5024908;28;20209;-61
2022/04/16 10:48:09;;;;;;;2.25;1.80;;;;;;;;;;5025499;28;20313;-77
2022/04/16 10:50:58;;;;;;;2.00;1.80;;;;;;;;;;5026106;28;20238;-60
2022/04/16 10:53:45;;;;;;;2.08;1.98;;;;;;;;;;5025465;28;20238;-60
2022/04/16 10:56:33;;;;;;;1.88;1.77;;;;;;;;;;5023943;28;20331;-60
2022/04/16 10:59:36;;;;;;;1.95;1.85;;;;;;;;;;5019427;28;20212;-61
2022/04/16 11:02:25;;;;;;;1.92;1.83;;;;;;;;;;5023244;28;20254;-61
2022/04/16 11:05:12;;;;;;;2.53;1.52;;;;;;;;;;5020141;28;20214;-60
2022/04/16 11:07:59;;;;;;;1.88;1.77;;;;;;;;;;5022981;28;20267;-60
2022/04/16 11:10:46;;;;;;;1.60;1.50;;;;;;;;;;5022472;28;20234;-61
2022/04/16 11:13:35;;;;;;;1.60;1.50;;;;;;;;;;5022754;28;20267;-60
2022/04/16 11:16:23;;;;;;;1.15;1.15;;;;;;;;;;5020428;28;20266;-60
2022/04/16 11:19:12;;;;;;;1.67;1.58;;;;;;;;;;5022256;28;20231;-60
2022/04/16 11:21:59;;;;;;;1.20;1.20;;;;;;;;;;5023888;28;20655;-61
2022/04/16 11:24:46;;;;;;;1.50;1.40;;;;;;;;;;5021318;28;20246;-64
2022/04/16 11:36:51;;;;;;;1.10;1.10;;;;;;;;;;5018874;28;20260;-59
2022/04/16 11:39:38;;;;;;;1.53;1.00;;;;;;;;;;5024884;28;20205;-61
2022/04/16 11:42:26;;;;;;;1.07;1.07;;;;;;;;;;5024326;28;20297;-61
2022/04/16 11:45:14;;;;;;;1.00;1.00;;;;;;;;;;5019576;28;20712;-61
2022/04/16 11:48:04;;;;;;;0.83;0.70;;;;;;;;;;5020477;28;20209;-61
2022/04/16 11:50:52;;;;;;;1.70;0.90;;;;;;;;;;5020836;28;20233;-61
2022/04/16 11:53:43;;;;;;;0.68;0.68;;;;;;;;;;5024858;28;20753;-60
2022/04/16 11:56:30;;;;;;;1.90;0.80;;;;;;;;;;5018211;28;20684;-60
2022/04/16 11:59:23;;;;;;;1.07;1.00;;;;;;;;;;5017315;28;20358;-61
2022/04/16 12:02:10;;;;;;;0.93;0.90;;;;;;;;;;5016937;28;20313;-62
2022/04/16 12:05:09;;;;;;;0.80;0.80;;;;;;;;;;5021577;28;20376;-60
2022/04/16 12:07:56;;;;;;;0.90;0.73;;;;;;;;;;5017109;28;20743;-60
2022/04/16 12:10:45;;;;;;;0.83;0.60;;;;;;;;;;5020407;28;20231;-60
2022/04/16 12:13:36;;;;;;;0.80;0.80;;;;;;;;;;5018369;28;20212;-60
2022/04/16 12:16:23;;;;;;;0.73;0.73;;;;;;;;;;5018363;28;20599;-60
2022/04/16 12:19:11;;;;;;;1.53;0.63;;;;;;;;;;5024392;28;20678;-60
2022/04/16 12:22:00;;;;;;;0.80;0.80;;;;;;;;;;5021554;28;20731;-60
2022/04/16 12:24:47;;;;;;;1.80;0.80;;;;;;;;;;5020610;28;20258;-60
2022/04/16 12:27:34;;;;;;;0.70;0.70;;;;;;;;;;5024674;28;20310;-60
2022/04/16 12:30:24;;;;;;;0.60;0.60;;;;;;;;;;5021818;28;20316;-60
2022/04/16 12:33:11;;;;;;;0.50;0.50;;;;;;;;;;5017891;28;20327;-60
2022/04/16 12:35:59;;;;;;;0.40;0.40;;;;;;;;;;5015896;28;20293;-59
2022/04/16 12:38:47;;;;;;;0.50;0.50;;;;;;;;;;5020022;28;20215;-60
2022/04/16 12:41:37;;;;;;;0.47;0.47;;;;;;;;;;5019953;28;20207;-60
2022/04/16 12:44:24;;;;;;;0.43;0.43;;;;;;;;;;5020832;28;20205;-60
2022/04/16 12:47:11;;;;;;;0.80;0.70;;;;;;;;;;5019358;28;20627;-61
2022/04/16 12:49:58;;;;;;;0.50;0.50;;;;;;;;;;5024877;28;20319;-60
2022/04/16 12:52:45;;;;;;;3.07;0.60;;;;;;;;;;5020281;28;20323;-61
2022/04/16 12:55:35;;;;;;;0.47;0.47;;;;;;;;;;5019529;28;20210;-60
2022/04/16 12:58:21;;;;;;;0.57;0.57;;;;;;;;;;5025842;28;20310;-61
2022/04/16 13:01:10;;;;;;;0.53;0.53;;;;;;;;;;5020514;28;20647;-60
2022/04/16 13:03:57;;;;;;;0.60;0.60;;;;;;;;;;5018070;28;20309;-61
2022/04/16 13:06:43;;;;;;;0.50;0.50;;;;;;;;;;5022096;28;20692;-60
2022/04/16 13:09:30;;;;;;;0.40;0.40;;;;;;;;;;5021576;28;20208;-61
2022/04/16 13:12:19;;;;;;;1.30;0.60;;;;;;;;;;5017026;28;20235;-61
2022/04/16 13:15:07;;;;;;;0.77;0.60;;;;;;;;;;5017768;28;20222;-61
2022/04/16 13:17:54;;;;;;;0.73;0.50;;;;;;;;;;5018629;28;20195;-61
2022/04/16 13:20:41;;;;;;;0.50;0.50;;;;;;;;;;5016673;28;20204;-61
2022/04/16 13:23:28;;;;;;;0.47;0.47;;;;;;;;;;5020597;28;20215;-61
2022/04/16 13:26:15;;;;;;;0.57;0.57;;;;;;;;;;5020360;28;20255;-61
2022/04/16 13:29:04;;;;;;;0.50;0.50;;;;;;;;;;5019677;28;20320;-62
2022/04/16 13:31:51;;;;;;;0.53;0.53;;;;;;;;;;5015462;28;20251;-61
2022/04/16 13:34:39;;;;;;;0.40;0.40;;;;;;;;;;5017158;28;20340;-61
2022/04/16 13:37:26;;;;;;;0.47;0.47;;;;;;;;;;5017511;28;20210;-61
2022/04/16 13:43:18;;;;;;;0.50;0.50;;;;;;;;;;5020367;28;20692;-61
2022/04/16 13:46:06;;;;;;;1.27;0.40;;;;;;;;;;5016334;28;20584;-61
2022/04/16 13:48:53;;;;;;;1.07;0.60;;;;;;;;;;5016610;28;20275;-61
2022/04/16 13:51:40;;;;;;;0.50;0.50;;;;;;;;;;5014680;28;20296;-61
2022/04/16 13:54:27;;;;;;;0.40;0.40;;;;;;;;;;5012559;28;20271;-61
2022/04/16 13:57:14;;;;;;;0.50;0.50;;;;;;;;;;5019838;28;20218;-68
2022/04/16 14:00:01;;;;;;;0.50;0.50;;;;;;;;;;5015971;28;20630;-60
2022/04/16 14:02:49;;;;;;;0.37;0.37;;;;;;;;;;5014942;28;20295;-61
2022/04/16 14:05:45;;;;;;;0.30;0.30;;;;;;;;;;5013506;28;20681;-61
2022/04/16 14:08:31;;;;;;;0.47;0.47;;;;;;;;;;5019128;28;20379;-61
2022/04/16 14:11:18;;;;;;;0.27;0.27;;;;;;;;;;5015738;28;20695;-61
2022/04/16 14:14:06;;;;;;;0.40;0.40;;;;;;;;;;5019655;28;20211;-61
2022/04/16 14:16:53;;;;;;;0.20;0.20;;;;;;;;;;5022869;28;20471;-61
2022/04/16 14:19:42;;;;;;;0.30;0.30;;;;;;;;;;5021035;28;20644;-61
2022/04/16 14:22:29;;;;;;;0.40;0.40;;;;;;;;;;5018832;28;20226;-61
2022/04/16 14:25:16;;;;;;;0.27;0.27;;;;;;;;;;5018658;28;20210;-61
2022/04/16 14:28:03;;;;;;;0.33;0.33;;;;;;;;;;5023165;28;20265;-61
2022/04/16 14:30:50;;;;;;;0.80;0.60;;;;;;;;;;5024486;28;20284;-61
2022/04/16 14:33:38;;;;;;;0.40;0.40;;;;;;;;;;5023337;28;20297;-61
2022/04/16 14:36:26;;;;;;;0.50;0.50;;;;;;;;;;5027694;28;20208;-61
2022/04/16 14:39:13;;;;;;;0.20;0.20;;;;;;;;;;5020322;28;20293;-61
2022/04/16 14:42:00;;;;;;;0.40;0.40;;;;;;;;;;5023587;28;20226;-61
2022/04/16 14:44:52;;;;;;;1.17;0.30;;;;;;;;;;5022618;28;20341;-61
2022/04/16 14:47:39;;;;;;;0.57;0.30;;;;;;;;;;5024408;28;20732;-61
2022/04/16 14:50:26;;;;;;;0.30;0.30;;;;;;;;;;5020562;28;20723;-61
2022/04/16 14:53:14;;;;;;;0.53;0.53;;;;;;;;;;5024230;28;20280;-61
2022/04/16 14:56:02;;;;;;;0.20;0.20;;;;;;;;;;5021449;28;20780;-61
2022/04/16 14:58:48;;;;;;;0.37;0.37;;;;;;;;;;5023695;28;20253;-61
2022/04/16 15:01:35;;;;;;;0.30;0.30;;;;;;;;;;5016336;28;20782;-61
2022/04/16 15:04:23;;;;;;;0.30;0.30;;;;;;;;;;5018819;28;20290;-61
2022/04/16 15:07:10;;;;;;;0.40;0.40;;;;;;;;;;5022624;28;20336;-61
2022/04/16 15:09:58;;;;;;;0.30;0.30;;;;;;;;;;5020242;28;20285;-61
2022/04/16 15:12:45;;;;;;;0.50;0.50;;;;;;;;;;5019809;28;20236;-61
2022/04/16 15:15:32;;;;;;;0.50;0.50;;;;;;;;;;5023030;28;20857;-61
2022/04/16 15:18:19;;;;;;;0.40;0.40;;;;;;;;;;5020182;28;20337;-61
2022/04/16 15:21:07;;;;;;;0.40;0.40;;;;;;;;;;5020257;28;20290;-61
2022/04/16 15:23:54;;;;;;;0.33;0.30;;;;;;;;;;5021892;28;20260;-60
2022/04/16 15:26:45;;;;;;;0.30;0.30;;;;;;;;;;5019869;28;20225;-61
2022/04/16 15:29:32;;;;;;;0.40;0.40;;;;;;;;;;5022646;28;20295;-61
2022/04/16 15:32:18;;;;;;;0.43;0.43;;;;;;;;;;5022816;28;20224;-61
2022/04/16 15:35:06;;;;;;;0.40;0.40;;;;;;;;;;5020535;28;20695;-61
2022/04/16 15:37:55;;;;;;;0.67;0.50;;;;;;;;;;5024135;28;20217;-61
2022/04/16 15:40:43;;;;;;;0.57;0.57;;;;;;;;;;5021110;28;20677;-61
2022/04/16 15:43:32;;;;;;;0.50;0.50;;;;;;;;;;5021495;28;20213;-61
2022/04/16 15:46:19;;;;;;;0.57;0.57;;;;;;;;;;5022347;28;20296;-61
2022/04/16 15:49:06;;;;;;;0.80;0.70;;;;;;;;;;5024399;28;20696;-61
2022/04/16 15:51:52;;;;;;;0.57;0.50;;;;;;;;;;5026710;28;20358;-61
2022/04/16 15:54:39;;;;;;;0.60;0.60;;;;;;;;;;5023292;28;20217;-61
2022/04/16 15:57:26;;;;;;;0.50;0.50;;;;;;;;;;5023874;28;20209;-61
2022/04/16 16:00:15;;;;;;;0.40;0.40;;;;;;;;;;5022151;28;20208;-61
2022/04/16 16:03:02;;;;;;;0.40;0.40;;;;;;;;;;5018397;28;20352;-63
2022/04/16 16:05:49;;;;;;;0.43;0.43;;;;;;;;;;5020369;28;20205;-61
2022/04/16 16:08:36;;;;;;;0.40;0.40;;;;;;;;;;5018745;28;20379;-61
2022/04/16 16:11:23;;;;;;;0.50;0.50;;;;;;;;;;5025227;28;20303;-61
2022/04/16 16:14:10;;;;;;;0.50;0.50;;;;;;;;;;5024305;28;20216;-61
2022/04/16 16:16:58;;;;;;;0.40;0.40;;;;;;;;;;5021212;28;20734;-61
2022/04/16 16:19:45;;;;;;;0.60;0.60;;;;;;;;;;5019613;28;20712;-61
2022/04/16 16:22:33;;;;;;;0.50;0.50;;;;;;;;;;5023269;28;20278;-61
2022/04/16 16:25:20;;;;;;;0.73;0.73;;;;;;;;;;5017346;28;20429;-61
2022/04/16 16:28:07;;;;;;;0.60;0.60;;;;;;;;;;5021991;28;20213;-61
2022/04/16 16:30:54;;;;;;;0.60;0.60;;;;;;;;;;5015881;28;20249;-61
2022/04/16 16:33:43;;;;;;;0.57;0.57;;;;;;;;;;5023005;28;20299;-61
2022/04/16 16:36:30;;;;;;;0.43;0.43;;;;;;;;;;5022477;28;20254;-59
2022/04/16 16:39:17;;;;;;;0.70;0.70;;;;;;;;;;5020877;28;20219;-61
2022/04/16 16:42:04;;;;;;;0.63;0.63;;;;;;;;;;5021668;28;20232;-61
2022/04/16 16:44:51;;;;;;;0.60;0.60;;;;;;;;;;5023784;28;20216;-61
2022/04/16 16:47:38;;;;;;;0.53;0.53;;;;;;;;;;5020523;28;20591;-61
2022/04/16 16:50:26;;;;;;;0.60;0.60;;;;;;;;;;5024761;28;20208;-61
2022/04/16 16:53:13;;;;;;;0.70;0.70;;;;;;;;;;5024121;28;20324;-61
2022/04/16 16:56:00;;;;;;;0.70;0.70;;;;;;;;;;5022324;28;20207;-61
2022/04/16 16:58:47;;;;;;;0.70;0.70;;;;;;;;;;5021186;28;20210;-61
2022/04/16 17:01:35;;;;;;;0.77;0.77;;;;;;;;;;5018393;28;20216;-61
2022/04/16 17:07:30;;;;;;;0.73;0.73;;;;;;;;;;5020332;28;20690;-61
2022/04/16 17:10:21;;;;;;;0.60;0.60;;;;;;;;;;5020204;28;20806;-61
2022/04/16 17:13:08;;;;;;;0.83;0.83;;;;;;;;;;5024243;28;20582;-61
2022/04/16 17:18:59;;;;;;;0.80;0.80;;;;;;;;;;5020430;28;20346;-61
2022/04/16 17:21:46;;;;;;;0.73;0.73;;;;;;;;;;5019836;28;20285;-61